sensor_id;sensor_type;location;lat;lon;timestamp;P1;durP1;ratioP1;P2;durP2;ratioP2
6947;SDS011;3513;47.664;9.162;2023-12-20T00:02:21;8.47;;;4.97;;
6947;SDS011;3513;47.664;9.162;2023-12-20T00:04:46;10.30;;;6.53;;
6947;SDS011;3513;47.664;9.162;2023-12-20T00:07:12;10.50;;;5.43;;
6947;SDS011;3513;47.664;9.162;2023-12-20T00:09:37;6.37;;;4.93;;
6947;SDS011;3513;47.664;9.162;2023-12-20T00:12:03;8.57;;;4.90;;
6947;SDS011;3513;47.664;9.162;2023-12-20T00:14:29;8.33;;;5.60;;
6947;SDS011;3513;47.664;9.162;2023-12-20T00:16:54;5.17;;;3.60;;
6947;SDS011;3513;47.664;9.162;2023-12-20T00:19:20;6.50;;;4.43;;
6947;SDS011;3513;47.664;9.162;2023-12-20T00:21:45;9.67;;;5.40;;
6947;SDS011;3513;47.664;9.162;2023-12-20T00:24:11;8.37;;;4.93;;
6947;SDS011;3513;47.664;9.162;2023-12-20T00:26:36;7.13;;;4.00;;
6947;SDS011;3513;47.664;9.162;2023-12-20T00:29:02;9.20;;;5.03;;
6947;SDS011;3513;47.664;9.162;2023-12-20T00:31:28;7.37;;;4.67;;
6947;SDS011;3513;47.664;9.162;2023-12-20T00:33:53;7.47;;;4.97;;
6947;SDS011;3513;47.664;9.162;2023-12-20T00:36:19;8.43;;;4.70;;
6947;SDS011;3513;47.664;9.162;2023-12-20T00:38:45;8.03;;;5.00;;
6947;SDS011;3513;47.664;9.162;2023-12-20T00:41:10;8.67;;;4.70;;
6947;SDS011;3513;47.664;9.162;2023-12-20T00:43:36;7.10;;;5.37;;
6947;SDS011;3513;47.664;9.162;2023-12-20T00:46:02;10.77;;;5.20;;
6947;SDS011;3513;47.664;9.162;2023-12-20T00:48:27;8.27;;;5.53;;
6947;SDS011;3513;47.664;9.162;2023-12-20T00:50:55;7.90;;;5.30;;
6947;SDS011;3513;47.664;9.162;2023-12-20T00:53:20;8.50;;;5.10;;
6947;SDS011;3513;47.664;9.162;2023-12-20T00:55:46;8.60;;;5.27;;
6947;SDS011;3513;47.664;9.162;2023-12-20T00:58:11;8.33;;;5.80;;
6947;SDS011;3513;47.664;9.162;2023-12-20T01:00:37;10.27;;;5.63;;
6947;SDS011;3513;47.664;9.162;2023-12-20T01:03:03;9.37;;;5.37;;
6947;SDS011;3513;47.664;9.162;2023-12-20T01:05:28;7.60;;;6.03;;
6947;SDS011;3513;47.664;9.162;2023-12-20T01:07:54;7.73;;;5.23;;
6947;SDS011;3513;47.664;9.162;2023-12-20T01:10:20;8.33;;;6.23;;
6947;SDS011;3513;47.664;9.162;2023-12-20T01:12:47;7.83;;;5.23;;
6947;SDS011;3513;47.664;9.162;2023-12-20T01:15:12;9.63;;;5.57;;
6947;SDS011;3513;47.664;9.162;2023-12-20T01:17:38;8.23;;;5.30;;
6947;SDS011;3513;47.664;9.162;2023-12-20T01:20:03;11.83;;;6.07;;
6947;SDS011;3513;47.664;9.162;2023-12-20T01:22:29;10.80;;;5.93;;
6947;SDS011;3513;47.664;9.162;2023-12-20T01:24:55;8.80;;;5.43;;
6947;SDS011;3513;47.664;9.162;2023-12-20T01:27:20;13.40;;;6.30;;
6947;SDS011;3513;47.664;9.162;2023-12-20T01:29:46;13.03;;;6.13;;
6947;SDS011;3513;47.664;9.162;2023-12-20T01:32:11;8.03;;;5.57;;
6947;SDS011;3513;47.664;9.162;2023-12-20T01:34:37;16.50;;;6.57;;
6947;SDS011;3513;47.664;9.162;2023-12-20T01:37:03;10.13;;;5.60;;
6947;SDS011;3513;47.664;9.162;2023-12-20T01:39:29;12.20;;;7.37;;
6947;SDS011;3513;47.664;9.162;2023-12-20T01:41:54;10.30;;;5.23;;
6947;SDS011;3513;47.664;9.162;2023-12-20T01:44:20;9.47;;;6.13;;
6947;SDS011;3513;47.664;9.162;2023-12-20T01:46:45;9.43;;;5.03;;
6947;SDS011;3513;47.664;9.162;2023-12-20T01:49:12;8.80;;;5.87;;
6947;SDS011;3513;47.664;9.162;2023-12-20T01:51:38;10.00;;;6.57;;
6947;SDS011;3513;47.664;9.162;2023-12-20T01:54:04;16.70;;;7.03;;
6947;SDS011;3513;47.664;9.162;2023-12-20T01:56:30;11.50;;;5.90;;
6947;SDS011;3513;47.664;9.162;2023-12-20T01:58:57;10.80;;;6.57;;
6947;SDS011;3513;47.664;9.162;2023-12-20T02:01:23;10.23;;;7.03;;
6947;SDS011;3513;47.664;9.162;2023-12-20T02:03:49;11.57;;;7.90;;
6947;SDS011;3513;47.664;9.162;2023-12-20T02:06:15;10.80;;;6.63;;
6947;SDS011;3513;47.664;9.162;2023-12-20T02:08:42;9.30;;;6.97;;
6947;SDS011;3513;47.664;9.162;2023-12-20T02:11:07;11.70;;;7.70;;
6947;SDS011;3513;47.664;9.162;2023-12-20T02:13:33;13.30;;;7.27;;
6947;SDS011;3513;47.664;9.162;2023-12-20T02:15:58;9.73;;;6.10;;
6947;SDS011;3513;47.664;9.162;2023-12-20T02:18:25;10.90;;;6.60;;
6947;SDS011;3513;47.664;9.162;2023-12-20T02:20:51;12.00;;;7.03;;
6947;SDS011;3513;47.664;9.162;2023-12-20T02:23:16;9.30;;;6.57;;
6947;SDS011;3513;47.664;9.162;2023-12-20T02:25:42;12.43;;;8.10;;
6947;SDS011;3513;47.664;9.162;2023-12-20T02:28:07;12.37;;;8.47;;
6947;SDS011;3513;47.664;9.162;2023-12-20T02:30:33;13.67;;;7.57;;
6947;SDS011;3513;47.664;9.162;2023-12-20T02:33:01;15.50;;;8.03;;
6947;SDS011;3513;47.664;9.162;2023-12-20T02:35:32;14.57;;;8.20;;
6947;SDS011;3513;47.664;9.162;2023-12-20T02:37:57;12.73;;;8.07;;
6947;SDS011;3513;47.664;9.162;2023-12-20T02:40:23;14.70;;;9.57;;
6947;SDS011;3513;47.664;9.162;2023-12-20T02:42:49;14.37;;;7.00;;
6947;SDS011;3513;47.664;9.162;2023-12-20T02:45:14;16.37;;;8.03;;
6947;SDS011;3513;47.664;9.162;2023-12-20T02:47:40;10.53;;;6.97;;
6947;SDS011;3513;47.664;9.162;2023-12-20T02:50:05;11.93;;;7.43;;
6947;SDS011;3513;47.664;9.162;2023-12-20T02:52:31;8.70;;;6.10;;
6947;SDS011;3513;47.664;9.162;2023-12-20T02:54:57;13.73;;;7.33;;
6947;SDS011;3513;47.664;9.162;2023-12-20T02:57:22;12.97;;;7.23;;
6947;SDS011;3513;47.664;9.162;2023-12-20T02:59:48;13.90;;;7.17;;
6947;SDS011;3513;47.664;9.162;2023-12-20T03:02:13;10.77;;;7.70;;
6947;SDS011;3513;47.664;9.162;2023-12-20T03:04:39;15.90;;;7.90;;
6947;SDS011;3513;47.664;9.162;2023-12-20T03:07:04;14.20;;;7.70;;
6947;SDS011;3513;47.664;9.162;2023-12-20T03:09:30;16.83;;;8.27;;
6947;SDS011;3513;47.664;9.162;2023-12-20T03:11:56;14.00;;;7.80;;
6947;SDS011;3513;47.664;9.162;2023-12-20T03:14:21;13.50;;;7.40;;
6947;SDS011;3513;47.664;9.162;2023-12-20T03:16:49;12.80;;;7.20;;
6947;SDS011;3513;47.664;9.162;2023-12-20T03:19:15;11.87;;;6.87;;
6947;SDS011;3513;47.664;9.162;2023-12-20T03:21:41;14.17;;;8.13;;
6947;SDS011;3513;47.664;9.162;2023-12-20T03:24:06;14.03;;;7.23;;
6947;SDS011;3513;47.664;9.162;2023-12-20T03:26:32;9.60;;;7.00;;
6947;SDS011;3513;47.664;9.162;2023-12-20T03:28:57;13.57;;;6.53;;
6947;SDS011;3513;47.664;9.162;2023-12-20T03:31:23;12.60;;;6.70;;
6947;SDS011;3513;47.664;9.162;2023-12-20T03:33:49;12.40;;;7.23;;
6947;SDS011;3513;47.664;9.162;2023-12-20T03:36:15;14.00;;;7.50;;
6947;SDS011;3513;47.664;9.162;2023-12-20T03:38:41;18.33;;;8.93;;
6947;SDS011;3513;47.664;9.162;2023-12-20T03:41:07;11.67;;;7.07;;
6947;SDS011;3513;47.664;9.162;2023-12-20T03:43:33;12.50;;;7.60;;
6947;SDS011;3513;47.664;9.162;2023-12-20T03:45:58;14.43;;;7.47;;
6947;SDS011;3513;47.664;9.162;2023-12-20T03:48:25;13.87;;;8.93;;
6947;SDS011;3513;47.664;9.162;2023-12-20T03:50:50;11.73;;;7.00;;
6947;SDS011;3513;47.664;9.162;2023-12-20T03:53:16;10.73;;;8.00;;
6947;SDS011;3513;47.664;9.162;2023-12-20T03:55:41;13.73;;;8.90;;
6947;SDS011;3513;47.664;9.162;2023-12-20T03:58:07;13.63;;;7.70;;
6947;SDS011;3513;47.664;9.162;2023-12-20T04:00:32;14.13;;;7.93;;
6947;SDS011;3513;47.664;9.162;2023-12-20T04:02:58;14.70;;;9.00;;
6947;SDS011;3513;47.664;9.162;2023-12-20T04:05:23;18.03;;;8.80;;
6947;SDS011;3513;47.664;9.162;2023-12-20T04:07:49;14.30;;;8.70;;
6947;SDS011;3513;47.664;9.162;2023-12-20T04:10:15;17.10;;;9.20;;
6947;SDS011;3513;47.664;9.162;2023-12-20T04:12:41;15.53;;;9.20;;
6947;SDS011;3513;47.664;9.162;2023-12-20T04:15:06;17.17;;;10.13;;
6947;SDS011;3513;47.664;9.162;2023-12-20T04:17:34;16.63;;;10.17;;
6947;SDS011;3513;47.664;9.162;2023-12-20T04:20:01;18.20;;;10.87;;
6947;SDS011;3513;47.664;9.162;2023-12-20T04:22:27;16.57;;;10.67;;
6947;SDS011;3513;47.664;9.162;2023-12-20T04:24:53;19.23;;;10.80;;
6947;SDS011;3513;47.664;9.162;2023-12-20T04:27:18;16.30;;;10.90;;
6947;SDS011;3513;47.664;9.162;2023-12-20T04:29:44;16.17;;;11.07;;
6947;SDS011;3513;47.664;9.162;2023-12-20T04:32:09;15.87;;;11.27;;
6947;SDS011;3513;47.664;9.162;2023-12-20T04:34:35;15.80;;;10.00;;
6947;SDS011;3513;47.664;9.162;2023-12-20T04:37:01;17.40;;;10.67;;
6947;SDS011;3513;47.664;9.162;2023-12-20T04:39:27;18.23;;;11.90;;
6947;SDS011;3513;47.664;9.162;2023-12-20T04:41:52;20.00;;;12.17;;
6947;SDS011;3513;47.664;9.162;2023-12-20T04:44:18;16.93;;;11.37;;
6947;SDS011;3513;47.664;9.162;2023-12-20T04:46:43;20.80;;;11.80;;
6947;SDS011;3513;47.664;9.162;2023-12-20T04:49:09;18.90;;;11.90;;
6947;SDS011;3513;47.664;9.162;2023-12-20T04:51:35;21.43;;;13.23;;
6947;SDS011;3513;47.664;9.162;2023-12-20T04:54:01;20.07;;;12.43;;
6947;SDS011;3513;47.664;9.162;2023-12-20T04:56:27;21.43;;;13.70;;
6947;SDS011;3513;47.664;9.162;2023-12-20T04:58:52;19.53;;;12.33;;
6947;SDS011;3513;47.664;9.162;2023-12-20T05:01:18;19.50;;;13.20;;
6947;SDS011;3513;47.664;9.162;2023-12-20T05:03:44;18.47;;;12.60;;
6947;SDS011;3513;47.664;9.162;2023-12-20T05:06:09;26.33;;;13.40;;
6947;SDS011;3513;47.664;9.162;2023-12-20T05:08:35;20.90;;;14.60;;
6947;SDS011;3513;47.664;9.162;2023-12-20T05:11:01;20.37;;;13.60;;
6947;SDS011;3513;47.664;9.162;2023-12-20T05:13:26;19.87;;;12.43;;
6947;SDS011;3513;47.664;9.162;2023-12-20T05:15:52;20.13;;;13.23;;
6947;SDS011;3513;47.664;9.162;2023-12-20T05:18:17;20.87;;;12.87;;
6947;SDS011;3513;47.664;9.162;2023-12-20T05:20:43;16.80;;;11.40;;
6947;SDS011;3513;47.664;9.162;2023-12-20T05:23:09;19.03;;;11.80;;
6947;SDS011;3513;47.664;9.162;2023-12-20T05:25:34;24.40;;;13.73;;
6947;SDS011;3513;47.664;9.162;2023-12-20T05:28:00;21.17;;;13.60;;
6947;SDS011;3513;47.664;9.162;2023-12-20T05:30:25;25.30;;;12.20;;
6947;SDS011;3513;47.664;9.162;2023-12-20T05:32:51;23.00;;;14.43;;
6947;SDS011;3513;47.664;9.162;2023-12-20T05:35:17;20.00;;;13.07;;
6947;SDS011;3513;47.664;9.162;2023-12-20T05:37:42;17.93;;;12.93;;
6947;SDS011;3513;47.664;9.162;2023-12-20T05:40:08;21.50;;;14.20;;
6947;SDS011;3513;47.664;9.162;2023-12-20T05:42:35;21.57;;;12.43;;
6947;SDS011;3513;47.664;9.162;2023-12-20T05:45:01;18.40;;;12.50;;
6947;SDS011;3513;47.664;9.162;2023-12-20T05:47:27;18.43;;;12.60;;
6947;SDS011;3513;47.664;9.162;2023-12-20T05:49:53;19.60;;;13.07;;
6947;SDS011;3513;47.664;9.162;2023-12-20T05:52:18;19.33;;;12.00;;
6947;SDS011;3513;47.664;9.162;2023-12-20T05:54:44;18.17;;;11.67;;
6947;SDS011;3513;47.664;9.162;2023-12-20T05:57:09;18.23;;;11.23;;
6947;SDS011;3513;47.664;9.162;2023-12-20T05:59:35;15.10;;;10.77;;
6947;SDS011;3513;47.664;9.162;2023-12-20T06:02:00;19.20;;;12.40;;
6947;SDS011;3513;47.664;9.162;2023-12-20T06:04:28;17.77;;;11.57;;
6947;SDS011;3513;47.664;9.162;2023-12-20T06:06:54;14.43;;;10.70;;
6947;SDS011;3513;47.664;9.162;2023-12-20T06:09:19;17.53;;;11.47;;
6947;SDS011;3513;47.664;9.162;2023-12-20T06:11:45;15.60;;;9.37;;
6947;SDS011;3513;47.664;9.162;2023-12-20T06:14:10;20.53;;;12.03;;
6947;SDS011;3513;47.664;9.162;2023-12-20T06:16:36;16.70;;;10.60;;
6947;SDS011;3513;47.664;9.162;2023-12-20T06:19:02;18.97;;;11.50;;
6947;SDS011;3513;47.664;9.162;2023-12-20T06:21:27;14.63;;;9.77;;
6947;SDS011;3513;47.664;9.162;2023-12-20T06:23:53;18.00;;;10.33;;
6947;SDS011;3513;47.664;9.162;2023-12-20T06:26:21;17.10;;;10.77;;
6947;SDS011;3513;47.664;9.162;2023-12-20T06:28:47;16.07;;;10.87;;
6947;SDS011;3513;47.664;9.162;2023-12-20T06:31:12;18.37;;;11.53;;
6947;SDS011;3513;47.664;9.162;2023-12-20T06:37:00;22.30;;;14.33;;
6947;SDS011;3513;47.664;9.162;2023-12-20T06:39:25;25.13;;;13.97;;
6947;SDS011;3513;47.664;9.162;2023-12-20T06:41:51;26.17;;;16.93;;
6947;SDS011;3513;47.664;9.162;2023-12-20T06:44:16;17.37;;;13.47;;
6947;SDS011;3513;47.664;9.162;2023-12-20T06:46:42;18.53;;;12.40;;
6947;SDS011;3513;47.664;9.162;2023-12-20T06:49:11;17.97;;;11.80;;
6947;SDS011;3513;47.664;9.162;2023-12-20T06:51:37;19.00;;;12.90;;
6947;SDS011;3513;47.664;9.162;2023-12-20T06:54:02;22.20;;;17.37;;
6947;SDS011;3513;47.664;9.162;2023-12-20T06:56:28;22.20;;;13.60;;
6947;SDS011;3513;47.664;9.162;2023-12-20T06:58:54;20.87;;;12.80;;
6947;SDS011;3513;47.664;9.162;2023-12-20T07:01:19;18.97;;;11.67;;
6947;SDS011;3513;47.664;9.162;2023-12-20T07:03:45;17.50;;;11.07;;
6947;SDS011;3513;47.664;9.162;2023-12-20T07:06:10;13.27;;;9.57;;
6947;SDS011;3513;47.664;9.162;2023-12-20T07:08:36;18.03;;;11.30;;
6947;SDS011;3513;47.664;9.162;2023-12-20T07:11:02;21.60;;;11.20;;
6947;SDS011;3513;47.664;9.162;2023-12-20T07:13:27;17.60;;;11.73;;
6947;SDS011;3513;47.664;9.162;2023-12-20T07:15:53;16.87;;;12.27;;
6947;SDS011;3513;47.664;9.162;2023-12-20T07:18:18;17.90;;;11.13;;
6947;SDS011;3513;47.664;9.162;2023-12-20T07:20:44;19.63;;;13.23;;
6947;SDS011;3513;47.664;9.162;2023-12-20T07:23:09;18.20;;;12.07;;
6947;SDS011;3513;47.664;9.162;2023-12-20T07:25:35;18.23;;;12.70;;
6947;SDS011;3513;47.664;9.162;2023-12-20T07:28:01;20.73;;;13.03;;
6947;SDS011;3513;47.664;9.162;2023-12-20T07:30:26;15.90;;;11.43;;
6947;SDS011;3513;47.664;9.162;2023-12-20T07:32:52;17.47;;;12.53;;
6947;SDS011;3513;47.664;9.162;2023-12-20T07:35:18;17.43;;;12.13;;
6947;SDS011;3513;47.664;9.162;2023-12-20T07:37:44;16.80;;;11.00;;
6947;SDS011;3513;47.664;9.162;2023-12-20T07:40:09;18.40;;;11.50;;
6947;SDS011;3513;47.664;9.162;2023-12-20T07:42:35;19.10;;;12.37;;
6947;SDS011;3513;47.664;9.162;2023-12-20T07:45:01;18.20;;;11.80;;
6947;SDS011;3513;47.664;9.162;2023-12-20T07:47:26;19.40;;;13.13;;
6947;SDS011;3513;47.664;9.162;2023-12-20T07:49:52;17.10;;;11.97;;
6947;SDS011;3513;47.664;9.162;2023-12-20T07:52:18;16.33;;;11.77;;
6947;SDS011;3513;47.664;9.162;2023-12-20T07:54:44;22.00;;;12.80;;
6947;SDS011;3513;47.664;9.162;2023-12-20T07:57:10;15.33;;;9.40;;
6947;SDS011;3513;47.664;9.162;2023-12-20T07:59:36;26.60;;;13.10;;
6947;SDS011;3513;47.664;9.162;2023-12-20T08:02:01;14.50;;;9.80;;
6947;SDS011;3513;47.664;9.162;2023-12-20T08:04:27;13.40;;;8.97;;
6947;SDS011;3513;47.664;9.162;2023-12-20T08:06:53;15.43;;;10.17;;
6947;SDS011;3513;47.664;9.162;2023-12-20T08:09:18;12.50;;;8.90;;
6947;SDS011;3513;47.664;9.162;2023-12-20T08:11:47;14.37;;;9.73;;
6947;SDS011;3513;47.664;9.162;2023-12-20T08:14:14;13.03;;;9.77;;
6947;SDS011;3513;47.664;9.162;2023-12-20T08:16:40;12.43;;;10.00;;
6947;SDS011;3513;47.664;9.162;2023-12-20T08:19:06;17.93;;;11.80;;
6947;SDS011;3513;47.664;9.162;2023-12-20T08:21:31;15.43;;;10.87;;
6947;SDS011;3513;47.664;9.162;2023-12-20T08:23:57;18.80;;;10.40;;
6947;SDS011;3513;47.664;9.162;2023-12-20T08:26:22;15.80;;;10.53;;
6947;SDS011;3513;47.664;9.162;2023-12-20T08:28:49;13.87;;;9.87;;
6947;SDS011;3513;47.664;9.162;2023-12-20T08:31:15;15.17;;;9.27;;
6947;SDS011;3513;47.664;9.162;2023-12-20T08:33:43;14.73;;;10.60;;
6947;SDS011;3513;47.664;9.162;2023-12-20T08:36:09;16.23;;;10.90;;
6947;SDS011;3513;47.664;9.162;2023-12-20T08:38:35;15.60;;;9.60;;
6947;SDS011;3513;47.664;9.162;2023-12-20T08:41:01;9.93;;;8.20;;
6947;SDS011;3513;47.664;9.162;2023-12-20T08:43:27;12.30;;;8.63;;
6947;SDS011;3513;47.664;9.162;2023-12-20T08:45:53;12.00;;;9.67;;
6947;SDS011;3513;47.664;9.162;2023-12-20T08:48:19;12.17;;;7.97;;
6947;SDS011;3513;47.664;9.162;2023-12-20T08:50:44;11.50;;;7.63;;
6947;SDS011;3513;47.664;9.162;2023-12-20T08:53:10;10.60;;;7.50;;
6947;SDS011;3513;47.664;9.162;2023-12-20T08:55:36;10.23;;;7.27;;
6947;SDS011;3513;47.664;9.162;2023-12-20T08:58:02;10.97;;;7.17;;
6947;SDS011;3513;47.664;9.162;2023-12-20T09:00:27;16.03;;;7.07;;
6947;SDS011;3513;47.664;9.162;2023-12-20T09:02:54;15.10;;;8.97;;
6947;SDS011;3513;47.664;9.162;2023-12-20T09:05:20;23.43;;;7.00;;
6947;SDS011;3513;47.664;9.162;2023-12-20T09:07:46;11.50;;;7.40;;
6947;SDS011;3513;47.664;9.162;2023-12-20T09:10:11;10.20;;;6.93;;
6947;SDS011;3513;47.664;9.162;2023-12-20T09:12:37;13.20;;;7.87;;
6947;SDS011;3513;47.664;9.162;2023-12-20T09:15:05;9.40;;;6.83;;
6947;SDS011;3513;47.664;9.162;2023-12-20T09:17:30;8.90;;;6.30;;
6947;SDS011;3513;47.664;9.162;2023-12-20T09:19:56;7.43;;;5.67;;
6947;SDS011;3513;47.664;9.162;2023-12-20T09:22:22;11.80;;;5.87;;
6947;SDS011;3513;47.664;9.162;2023-12-20T09:24:48;7.57;;;5.57;;
6947;SDS011;3513;47.664;9.162;2023-12-20T09:27:13;10.40;;;4.97;;
6947;SDS011;3513;47.664;9.162;2023-12-20T09:29:39;6.50;;;4.67;;
6947;SDS011;3513;47.664;9.162;2023-12-20T09:32:04;7.77;;;6.17;;
6947;SDS011;3513;47.664;9.162;2023-12-20T09:34:30;9.90;;;6.40;;
6947;SDS011;3513;47.664;9.162;2023-12-20T09:36:56;5.80;;;5.10;;
6947;SDS011;3513;47.664;9.162;2023-12-20T09:39:21;6.97;;;5.37;;
6947;SDS011;3513;47.664;9.162;2023-12-20T09:41:59;5.17;;;4.20;;
6947;SDS011;3513;47.664;9.162;2023-12-20T09:44:27;9.40;;;4.80;;
6947;SDS011;3513;47.664;9.162;2023-12-20T09:46:53;5.50;;;4.47;;
6947;SDS011;3513;47.664;9.162;2023-12-20T09:49:20;6.07;;;4.43;;
6947;SDS011;3513;47.664;9.162;2023-12-20T09:51:47;12.50;;;5.60;;
6947;SDS011;3513;47.664;9.162;2023-12-20T09:54:19;8.57;;;5.00;;
6947;SDS011;3513;47.664;9.162;2023-12-20T09:56:46;6.93;;;3.63;;
6947;SDS011;3513;47.664;9.162;2023-12-20T09:59:13;4.73;;;3.20;;
6947;SDS011;3513;47.664;9.162;2023-12-20T10:01:42;4.53;;;4.13;;
6947;SDS011;3513;47.664;9.162;2023-12-20T10:04:09;6.53;;;4.20;;
6947;SDS011;3513;47.664;9.162;2023-12-20T10:06:40;6.07;;;4.47;;
6947;SDS011;3513;47.664;9.162;2023-12-20T10:09:06;5.47;;;3.77;;
6947;SDS011;3513;47.664;9.162;2023-12-20T10:11:32;4.37;;;3.70;;
6947;SDS011;3513;47.664;9.162;2023-12-20T10:14:00;7.20;;;3.33;;
6947;SDS011;3513;47.664;9.162;2023-12-20T10:16:26;3.70;;;3.23;;
6947;SDS011;3513;47.664;9.162;2023-12-20T10:18:53;4.47;;;3.93;;
6947;SDS011;3513;47.664;9.162;2023-12-20T10:21:19;4.90;;;3.90;;
6947;SDS011;3513;47.664;9.162;2023-12-20T10:23:45;7.80;;;3.70;;
6947;SDS011;3513;47.664;9.162;2023-12-20T10:26:18;5.87;;;3.47;;
6947;SDS011;3513;47.664;9.162;2023-12-20T10:28:45;2.63;;;2.43;;
6947;SDS011;3513;47.664;9.162;2023-12-20T10:31:10;4.30;;;3.70;;
6947;SDS011;3513;47.664;9.162;2023-12-20T10:33:50;5.43;;;3.80;;
6947;SDS011;3513;47.664;9.162;2023-12-20T10:36:16;4.10;;;3.70;;
6947;SDS011;3513;47.664;9.162;2023-12-20T10:38:41;8.30;;;3.47;;
6947;SDS011;3513;47.664;9.162;2023-12-20T10:41:07;4.37;;;3.30;;
6947;SDS011;3513;47.664;9.162;2023-12-20T10:43:34;3.80;;;3.40;;
6947;SDS011;3513;47.664;9.162;2023-12-20T10:46:01;4.10;;;3.20;;
6947;SDS011;3513;47.664;9.162;2023-12-20T10:48:28;3.60;;;3.10;;
6947;SDS011;3513;47.664;9.162;2023-12-20T10:50:57;4.60;;;3.10;;
6947;SDS011;3513;47.664;9.162;2023-12-20T10:53:23;6.47;;;3.13;;
6947;SDS011;3513;47.664;9.162;2023-12-20T10:55:50;2.40;;;2.10;;
6947;SDS011;3513;47.664;9.162;2023-12-20T10:58:20;3.40;;;3.10;;
6947;SDS011;3513;47.664;9.162;2023-12-20T11:00:46;3.57;;;2.67;;
6947;SDS011;3513;47.664;9.162;2023-12-20T11:03:15;3.17;;;2.47;;
6947;SDS011;3513;47.664;9.162;2023-12-20T11:05:44;2.83;;;1.97;;
6947;SDS011;3513;47.664;9.162;2023-12-20T11:08:31;1.90;;;1.80;;
6947;SDS011;3513;47.664;9.162;2023-12-20T11:11:23;2.33;;;2.13;;
6947;SDS011;3513;47.664;9.162;2023-12-20T11:14:08;3.07;;;2.13;;
6947;SDS011;3513;47.664;9.162;2023-12-20T11:16:40;2.60;;;2.17;;
6947;SDS011;3513;47.664;9.162;2023-12-20T11:19:06;2.03;;;1.83;;
6947;SDS011;3513;47.664;9.162;2023-12-20T11:21:32;3.37;;;2.10;;
6947;SDS011;3513;47.664;9.162;2023-12-20T11:24:01;3.50;;;1.80;;
6947;SDS011;3513;47.664;9.162;2023-12-20T11:26:29;1.30;;;1.20;;
6947;SDS011;3513;47.664;9.162;2023-12-20T11:29:40;3.03;;;1.23;;
6947;SDS011;3513;47.664;9.162;2023-12-20T11:32:03;1.63;;;1.30;;
6947;SDS011;3513;47.664;9.162;2023-12-20T11:34:50;1.70;;;1.23;;
6947;SDS011;3513;47.664;9.162;2023-12-20T11:37:16;7.63;;;1.43;;
6947;SDS011;3513;47.664;9.162;2023-12-20T11:39:44;2.50;;;1.20;;
6947;SDS011;3513;47.664;9.162;2023-12-20T11:42:09;2.20;;;1.70;;
6947;SDS011;3513;47.664;9.162;2023-12-20T11:44:36;1.80;;;1.67;;
6947;SDS011;3513;47.664;9.162;2023-12-20T11:47:02;2.90;;;2.57;;
6947;SDS011;3513;47.664;9.162;2023-12-20T11:49:28;8.37;;;2.40;;
6947;SDS011;3513;47.664;9.162;2023-12-20T11:51:55;4.20;;;2.40;;
6947;SDS011;3513;47.664;9.162;2023-12-20T11:54:21;2.47;;;2.30;;
6947;SDS011;3513;47.664;9.162;2023-12-20T11:56:47;2.30;;;2.10;;
6947;SDS011;3513;47.664;9.162;2023-12-20T11:59:13;3.17;;;2.20;;
6947;SDS011;3513;47.664;9.162;2023-12-20T12:01:39;2.27;;;1.97;;
6947;SDS011;3513;47.664;9.162;2023-12-20T12:04:05;1.90;;;1.60;;
6947;SDS011;3513;47.664;9.162;2023-12-20T12:06:31;2.07;;;1.87;;
6947;SDS011;3513;47.664;9.162;2023-12-20T12:08:57;2.90;;;2.03;;
6947;SDS011;3513;47.664;9.162;2023-12-20T12:11:22;2.37;;;2.17;;
6947;SDS011;3513;47.664;9.162;2023-12-20T12:13:48;3.40;;;1.70;;
6947;SDS011;3513;47.664;9.162;2023-12-20T12:16:17;1.60;;;1.50;;
6947;SDS011;3513;47.664;9.162;2023-12-20T12:18:44;2.83;;;1.47;;
6947;SDS011;3513;47.664;9.162;2023-12-20T12:21:10;1.93;;;1.50;;
6947;SDS011;3513;47.664;9.162;2023-12-20T12:23:43;2.60;;;1.50;;
6947;SDS011;3513;47.664;9.162;2023-12-20T12:26:08;1.93;;;1.60;;
6947;SDS011;3513;47.664;9.162;2023-12-20T12:28:34;1.30;;;1.17;;
6947;SDS011;3513;47.664;9.162;2023-12-20T12:31:00;1.20;;;1.10;;
6947;SDS011;3513;47.664;9.162;2023-12-20T12:33:26;1.93;;;1.07;;
6947;SDS011;3513;47.664;9.162;2023-12-20T12:35:52;5.10;;;1.63;;
6947;SDS011;3513;47.664;9.162;2023-12-20T12:38:20;1.73;;;1.63;;
6947;SDS011;3513;47.664;9.162;2023-12-20T12:40:46;2.43;;;1.40;;
6947;SDS011;3513;47.664;9.162;2023-12-20T12:43:12;1.40;;;1.30;;
6947;SDS011;3513;47.664;9.162;2023-12-20T12:45:38;1.60;;;1.50;;
6947;SDS011;3513;47.664;9.162;2023-12-20T12:48:03;2.80;;;1.40;;
6947;SDS011;3513;47.664;9.162;2023-12-20T12:50:30;2.07;;;1.40;;
6947;SDS011;3513;47.664;9.162;2023-12-20T12:52:56;1.30;;;1.20;;
6947;SDS011;3513;47.664;9.162;2023-12-20T12:55:21;1.47;;;1.20;;
6947;SDS011;3513;47.664;9.162;2023-12-20T12:57:47;1.27;;;1.17;;
6947;SDS011;3513;47.664;9.162;2023-12-20T13:00:12;1.57;;;1.47;;
6947;SDS011;3513;47.664;9.162;2023-12-20T13:02:38;2.20;;;1.40;;
6947;SDS011;3513;47.664;9.162;2023-12-20T13:05:07;1.37;;;1.27;;
6947;SDS011;3513;47.664;9.162;2023-12-20T13:07:33;1.10;;;1.00;;
6947;SDS011;3513;47.664;9.162;2023-12-20T13:09:59;1.40;;;1.30;;
6947;SDS011;3513;47.664;9.162;2023-12-20T13:12:25;4.80;;;1.80;;
6947;SDS011;3513;47.664;9.162;2023-12-20T13:14:51;6.87;;;1.60;;
6947;SDS011;3513;47.664;9.162;2023-12-20T13:17:16;2.60;;;1.80;;
6947;SDS011;3513;47.664;9.162;2023-12-20T13:19:42;2.20;;;1.77;;
6947;SDS011;3513;47.664;9.162;2023-12-20T13:22:08;1.53;;;1.43;;
6947;SDS011;3513;47.664;9.162;2023-12-20T13:24:33;2.03;;;1.40;;
6947;SDS011;3513;47.664;9.162;2023-12-20T13:26:59;5.73;;;1.37;;
6947;SDS011;3513;47.664;9.162;2023-12-20T13:29:25;1.10;;;1.00;;
6947;SDS011;3513;47.664;9.162;2023-12-20T13:31:53;2.90;;;1.30;;
6947;SDS011;3513;47.664;9.162;2023-12-20T13:34:19;1.73;;;1.47;;
6947;SDS011;3513;47.664;9.162;2023-12-20T13:36:45;2.37;;;1.27;;
6947;SDS011;3513;47.664;9.162;2023-12-20T13:39:12;1.10;;;0.83;;
6947;SDS011;3513;47.664;9.162;2023-12-20T13:41:39;3.07;;;1.13;;
6947;SDS011;3513;47.664;9.162;2023-12-20T13:44:04;1.23;;;1.13;;
6947;SDS011;3513;47.664;9.162;2023-12-20T13:46:30;1.77;;;1.43;;
6947;SDS011;3513;47.664;9.162;2023-12-20T13:48:56;2.17;;;1.43;;
6947;SDS011;3513;47.664;9.162;2023-12-20T13:51:22;1.10;;;1.00;;
6947;SDS011;3513;47.664;9.162;2023-12-20T13:53:47;2.17;;;1.40;;
6947;SDS011;3513;47.664;9.162;2023-12-20T13:56:13;18.77;;;1.27;;
6947;SDS011;3513;47.664;9.162;2023-12-20T13:58:39;1.30;;;1.20;;
6947;SDS011;3513;47.664;9.162;2023-12-20T14:01:06;1.23;;;0.93;;
6947;SDS011;3513;47.664;9.162;2023-12-20T14:03:35;1.60;;;1.20;;
6947;SDS011;3513;47.664;9.162;2023-12-20T14:06:01;1.47;;;1.13;;
6947;SDS011;3513;47.664;9.162;2023-12-20T14:08:27;3.07;;;1.30;;
6947;SDS011;3513;47.664;9.162;2023-12-20T14:10:53;1.30;;;1.20;;
6947;SDS011;3513;47.664;9.162;2023-12-20T14:13:18;0.80;;;0.70;;
6947;SDS011;3513;47.664;9.162;2023-12-20T14:15:45;4.57;;;1.63;;
6947;SDS011;3513;47.664;9.162;2023-12-20T14:18:11;3.83;;;1.37;;
6947;SDS011;3513;47.664;9.162;2023-12-20T14:20:39;2.20;;;1.53;;
6947;SDS011;3513;47.664;9.162;2023-12-20T14:23:07;2.40;;;1.50;;
6947;SDS011;3513;47.664;9.162;2023-12-20T14:25:34;3.17;;;1.47;;
6947;SDS011;3513;47.664;9.162;2023-12-20T14:28:02;1.20;;;1.10;;
6947;SDS011;3513;47.664;9.162;2023-12-20T14:30:28;1.93;;;1.23;;
6947;SDS011;3513;47.664;9.162;2023-12-20T14:32:54;1.90;;;1.23;;
6947;SDS011;3513;47.664;9.162;2023-12-20T14:35:19;1.40;;;1.30;;
6947;SDS011;3513;47.664;9.162;2023-12-20T14:37:45;2.80;;;1.63;;
6947;SDS011;3513;47.664;9.162;2023-12-20T14:40:11;2.60;;;1.60;;
6947;SDS011;3513;47.664;9.162;2023-12-20T14:42:43;4.30;;;1.47;;
6947;SDS011;3513;47.664;9.162;2023-12-20T14:45:09;4.13;;;1.40;;
6947;SDS011;3513;47.664;9.162;2023-12-20T14:47:35;4.10;;;1.67;;
6947;SDS011;3513;47.664;9.162;2023-12-20T14:50:04;4.10;;;1.67;;
6947;SDS011;3513;47.664;9.162;2023-12-20T14:52:31;1.97;;;1.33;;
6947;SDS011;3513;47.664;9.162;2023-12-20T14:54:59;1.60;;;1.30;;
6947;SDS011;3513;47.664;9.162;2023-12-20T14:57:24;10.80;;;1.40;;
6947;SDS011;3513;47.664;9.162;2023-12-20T14:59:51;2.03;;;1.43;;
6947;SDS011;3513;47.664;9.162;2023-12-20T15:02:17;3.93;;;1.20;;
6947;SDS011;3513;47.664;9.162;2023-12-20T15:04:42;4.60;;;1.33;;